createdAt,value
2019-03-18T00:00:29.785Z,1.77
2019-03-18T00:02:59.830Z,3.63
2019-03-18T00:05:29.454Z,3.33
2019-03-18T00:08:00.917Z,3.03
2019-03-18T00:10:30.445Z,1.77
2019-03-18T00:12:59.590Z,2.83
2019-03-18T00:15:29.856Z,3.67
2019-03-18T00:17:59.442Z,2.77
2019-03-18T00:20:28.798Z,1.83
2019-03-18T00:22:59.155Z,3.30
2019-03-18T00:25:28.631Z,2.80
2019-03-18T00:27:57.774Z,1.83
2019-03-18T00:30:27.259Z,2.83
2019-03-18T00:32:56.749Z,3.80
2019-03-18T00:35:25.990Z,3.87
2019-03-18T00:37:57.497Z,2.60
2019-03-18T00:40:26.900Z,2.97
2019-03-18T00:42:56.048Z,2.90
2019-03-18T00:45:25.528Z,4.43
2019-03-18T00:47:54.990Z,4.87
2019-03-18T00:50:24.144Z,2.87
2019-03-18T00:52:53.632Z,3.40
2019-03-18T00:55:23.107Z,1.77
2019-03-18T00:57:52.316Z,2.33
2019-03-18T01:00:21.867Z,1.77
2019-03-18T01:02:51.485Z,1.40
2019-03-18T01:05:21.945Z,1.83
2019-03-18T01:07:51.441Z,2.23
2019-03-18T01:10:20.590Z,3.80
2019-03-18T01:12:50.254Z,4.33
2019-03-18T01:15:27.976Z,1.67
2019-03-18T01:17:50.788Z,3.55
2019-03-18T01:20:20.310Z,1.90
2019-03-18T01:22:49.909Z,2.10
2019-03-18T01:25:19.214Z,2.17
2019-03-18T01:27:48.374Z,3.03
2019-03-18T01:30:17.910Z,3.33
2019-03-18T01:32:47.312Z,5.90
2019-03-18T01:35:16.546Z,3.47
2019-03-18T01:37:45.951Z,2.63
2019-03-18T01:40:16.321Z,1.83
2019-03-18T01:42:45.782Z,2.90
2019-03-18T01:45:18.231Z,3.43
2019-03-18T01:47:47.641Z,3.87
2019-03-18T01:50:16.884Z,2.10
2019-03-18T01:52:46.287Z,4.43
2019-03-18T01:55:15.825Z,5.57
2019-03-18T01:57:45.265Z,3.67
2019-03-18T02:00:16.053Z,4.27
2019-03-18T02:02:45.515Z,6.67
2019-03-18T02:05:15.071Z,4.97
2019-03-18T02:07:44.524Z,3.00
2019-03-18T02:10:14.838Z,2.07
2019-03-18T02:12:45.973Z,6.17
2019-03-18T02:15:16.177Z,2.07
2019-03-18T02:17:46.602Z,3.83
2019-03-18T02:20:19.408Z,2.23
2019-03-18T02:22:49.908Z,4.67
2019-03-18T02:25:20.045Z,2.40
2019-03-18T02:27:49.679Z,3.97
2019-03-18T02:30:19.552Z,2.87
2019-03-18T02:32:49.259Z,3.17
2019-03-18T02:35:18.503Z,2.90
2019-03-18T02:37:48.090Z,5.07
2019-03-18T02:40:17.584Z,3.63
2019-03-18T02:42:47.008Z,11.90
2019-03-18T02:45:16.275Z,6.60
2019-03-18T02:47:45.590Z,6.67
2019-03-18T02:50:14.748Z,6.73
2019-03-18T02:52:45.071Z,7.03
2019-03-18T02:55:15.344Z,4.13
2019-03-18T02:57:45.687Z,7.57
2019-03-18T03:00:20.960Z,5.20
2019-03-18T03:02:51.426Z,7.23
2019-03-18T03:05:21.556Z,7.10
2019-03-18T03:07:55.248Z,12.77
2019-03-18T03:10:25.537Z,8.70
2019-03-18T03:12:55.005Z,5.70
2019-03-18T03:15:24.244Z,7.33
2019-03-18T03:17:53.591Z,8.90
2019-03-18T03:20:23.178Z,11.27
2019-03-18T03:22:53.460Z,7.63
2019-03-18T03:25:24.980Z,12.20
2019-03-18T03:27:54.082Z,6.50
2019-03-18T03:30:23.283Z,6.47
2019-03-18T03:32:52.720Z,10.07
2019-03-18T03:35:22.207Z,6.50
2019-03-18T03:37:51.716Z,10.23
2019-03-18T03:40:21.189Z,6.57
2019-03-18T03:42:50.822Z,11.23
2019-03-18T03:45:20.235Z,7.40
2019-03-18T03:47:49.861Z,7.63
2019-03-18T03:50:19.205Z,16.73
2019-03-18T03:52:48.728Z,11.63
2019-03-18T03:55:19.859Z,11.00
2019-03-18T03:57:51.435Z,9.77
2019-03-18T04:00:20.964Z,5.97
2019-03-18T04:02:50.846Z,13.93
2019-03-18T04:05:22.080Z,19.50
2019-03-18T04:07:52.414Z,9.23
2019-03-18T04:10:23.936Z,9.93
2019-03-18T04:12:59.206Z,10.70
2019-03-18T04:15:28.423Z,8.90
2019-03-18T04:17:57.754Z,15.93
2019-03-18T04:20:27.226Z,8.70
2019-03-18T04:23:09.459Z,11.10
2019-03-18T04:25:39.078Z,9.37
2019-03-18T04:28:08.815Z,16.93
2019-03-18T04:30:46.228Z,12.87
2019-03-18T04:33:16.516Z,10.23
2019-03-18T04:35:45.953Z,12.07
2019-03-18T04:38:24.488Z,9.17
2019-03-18T04:40:53.958Z,13.80
2019-03-18T04:43:23.140Z,11.33
2019-03-18T04:45:52.593Z,9.47
2019-03-18T04:48:22.085Z,12.43
2019-03-18T04:50:52.397Z,13.23
2019-03-18T04:53:21.573Z,11.67
2019-03-18T04:55:51.338Z,9.37
2019-03-18T04:58:20.915Z,10.17
2019-03-18T05:00:56.192Z,12.70
2019-03-18T05:03:30.240Z,13.17
2019-03-18T05:06:00.505Z,10.40
2019-03-18T05:08:31.696Z,19.23
2019-03-18T05:11:01.155Z,10.80
2019-03-18T05:13:30.326Z,14.73
2019-03-18T05:16:03.873Z,11.70
2019-03-18T05:18:39.071Z,14.93
2019-03-18T05:21:08.250Z,13.70
2019-03-18T05:23:40.575Z,12.80
2019-03-18T05:26:23.656Z,16.33
2019-03-18T05:28:53.100Z,16.50
2019-03-18T05:31:25.451Z,13.03
2019-03-18T05:33:57.481Z,12.97
2019-03-18T05:36:27.781Z,13.57
2019-03-18T05:38:58.041Z,14.80
2019-03-18T05:41:27.193Z,15.70
2019-03-18T05:43:58.731Z,19.57
2019-03-18T05:46:28.232Z,16.57
2019-03-18T05:48:57.727Z,15.60
2019-03-18T05:51:27.232Z,14.60
2019-03-18T05:53:56.399Z,13.30
2019-03-18T05:56:25.832Z,14.47
2019-03-18T05:58:56.181Z,16.63
2019-03-18T06:01:26.467Z,14.97
2019-03-18T06:03:55.651Z,16.27
2019-03-18T06:06:25.915Z,16.27
2019-03-18T06:08:55.382Z,15.30
2019-03-18T06:11:26.581Z,15.30
2019-03-18T06:13:56.893Z,14.47
2019-03-18T06:16:26.365Z,15.93
2019-03-18T06:18:55.549Z,17.23
2019-03-18T06:21:25.849Z,12.77
2019-03-18T06:23:55.291Z,12.47
2019-03-18T06:26:25.647Z,16.87
2019-03-18T06:28:55.179Z,15.50
2019-03-18T06:31:25.046Z,14.90
2019-03-18T06:33:54.567Z,13.60
2019-03-18T06:36:24.091Z,14.10
2019-03-18T06:38:53.589Z,13.97
2019-03-18T06:41:23.075Z,15.37
2019-03-18T06:43:52.677Z,14.90
2019-03-18T06:46:22.058Z,16.70
2019-03-18T06:48:52.396Z,15.77
2019-03-18T06:51:21.592Z,15.40
2019-03-18T06:53:53.034Z,21.40
2019-03-18T06:56:22.193Z,12.37
2019-03-18T06:58:52.518Z,14.13
2019-03-18T07:01:22.028Z,39.47
2019-03-18T07:03:54.335Z,13.70
2019-03-18T07:06:23.538Z,12.07
2019-03-18T07:08:52.934Z,13.93
2019-03-18T07:11:22.089Z,11.93
2019-03-18T07:13:52.443Z,14.37
2019-03-18T07:16:21.857Z,14.73
2019-03-18T07:18:51.193Z,11.97
2019-03-18T07:21:20.550Z,14.97
2019-03-18T07:23:51.027Z,15.03
2019-03-18T07:26:20.311Z,16.20
2019-03-18T07:28:50.859Z,14.30
2019-03-18T07:31:20.963Z,15.17
2019-03-18T07:33:50.588Z,11.73
2019-03-18T07:36:20.083Z,12.03
2019-03-18T07:38:49.752Z,17.33
2019-03-18T07:41:18.993Z,14.13
2019-03-18T07:43:48.504Z,10.87
2019-03-18T07:46:17.982Z,13.17
2019-03-18T07:48:47.135Z,12.83
2019-03-18T07:51:16.621Z,17.60
2019-03-18T07:53:46.110Z,11.67
2019-03-18T07:56:15.590Z,13.60
2019-03-18T07:58:44.780Z,13.90
2019-03-18T08:01:15.056Z,10.60
2019-03-18T08:03:46.159Z,14.53
2019-03-18T08:06:15.357Z,17.50
2019-03-18T08:08:44.751Z,10.83
2019-03-18T08:11:13.897Z,11.87
2019-03-18T08:13:43.388Z,14.60
2019-03-18T08:16:12.546Z,17.43
2019-03-18T08:18:43.517Z,10.93
2019-03-18T08:21:13.137Z,11.47
2019-03-18T08:23:42.624Z,14.97
2019-03-18T08:26:11.784Z,13.40
2019-03-18T08:28:41.306Z,13.07
2019-03-18T08:31:10.731Z,8.07
2019-03-18T08:33:39.953Z,13.50
2019-03-18T08:36:09.350Z,14.20
2019-03-18T08:38:38.841Z,9.60
2019-03-18T08:41:08.313Z,6.53
2019-03-18T08:43:37.864Z,8.17
2019-03-18T08:46:08.155Z,9.97
2019-03-18T08:48:37.326Z,8.97
2019-03-18T08:51:06.788Z,8.73
2019-03-18T08:53:36.252Z,6.50
2019-03-18T08:56:05.411Z,9.63
2019-03-18T08:58:34.901Z,11.57
2019-03-18T09:01:04.382Z,11.27
2019-03-18T09:03:33.677Z,10.93
2019-03-18T09:06:03.419Z,10.43
2019-03-18T09:08:32.582Z,10.70
2019-03-18T09:11:01.804Z,9.00
2019-03-18T09:13:32.136Z,12.77
2019-03-18T09:16:01.590Z,7.10
2019-03-18T09:18:30.749Z,8.57
2019-03-18T09:21:00.022Z,11.93
2019-03-18T09:23:29.167Z,8.70
2019-03-18T09:25:58.333Z,10.37
2019-03-18T09:28:27.662Z,11.47
2019-03-18T09:30:56.825Z,7.67
2019-03-18T09:33:25.977Z,8.17
2019-03-18T09:35:55.162Z,8.27
2019-03-18T09:38:24.319Z,6.23
2019-03-18T09:40:53.547Z,9.60
2019-03-18T09:43:24.770Z,10.83
2019-03-18T09:45:54.671Z,8.73
2019-03-18T09:48:23.946Z,8.97
2019-03-18T09:50:53.146Z,6.87
2019-03-18T09:53:22.310Z,10.43
2019-03-18T09:55:51.486Z,10.50
2019-03-18T09:58:20.673Z,12.07
2019-03-18T10:00:49.837Z,10.00
2019-03-18T10:03:18.989Z,7.07
2019-03-18T10:05:48.351Z,8.67
2019-03-18T10:08:17.487Z,6.20
2019-03-18T10:10:46.648Z,8.13
2019-03-18T10:13:15.819Z,11.63
2019-03-18T10:15:45.067Z,13.43
2019-03-18T10:18:14.218Z,9.10
2019-03-18T10:20:43.476Z,7.47
2019-03-18T10:23:12.623Z,7.60
2019-03-18T10:25:41.789Z,7.93
2019-03-18T10:28:10.996Z,6.77
2019-03-18T10:30:40.424Z,7.80
2019-03-18T10:33:09.587Z,13.13
2019-03-18T10:35:40.693Z,5.43
2019-03-18T10:38:10.164Z,10.83
2019-03-18T10:40:40.491Z,7.17
2019-03-18T10:43:09.687Z,10.43
2019-03-18T10:45:39.090Z,10.60
2019-03-18T10:48:09.418Z,8.00
2019-03-18T10:50:38.625Z,9.20
2019-03-18T10:53:08.056Z,10.67
2019-03-18T10:55:37.524Z,12.37
2019-03-18T10:58:06.719Z,11.80
2019-03-18T11:00:37.005Z,8.63
2019-03-18T11:03:06.524Z,13.90
2019-03-18T11:05:35.727Z,7.17
2019-03-18T11:08:05.038Z,10.53
2019-03-18T11:10:34.267Z,7.77
2019-03-18T11:13:03.745Z,15.40
2019-03-18T11:15:33.155Z,7.40
2019-03-18T11:18:02.332Z,10.53
2019-03-18T11:20:31.806Z,7.40
2019-03-18T11:23:01.308Z,8.10
2019-03-18T11:25:30.783Z,10.60
2019-03-18T11:28:00.044Z,9.50
2019-03-18T11:30:29.430Z,6.93
2019-03-18T11:32:58.871Z,9.90
2019-03-18T11:35:28.077Z,9.03
2019-03-18T11:37:57.479Z,12.17
2019-03-18T11:40:26.623Z,11.10
2019-03-18T11:42:56.114Z,10.37
2019-03-18T11:45:25.584Z,5.23
2019-03-18T11:47:54.738Z,6.33
2019-03-18T11:50:24.210Z,6.27
2019-03-18T11:52:54.178Z,5.10
2019-03-18T11:55:25.675Z,10.17
2019-03-18T11:57:54.927Z,9.90
2019-03-18T12:00:25.470Z,9.33
2019-03-18T12:02:54.631Z,9.57
2019-03-18T12:05:28.234Z,6.77
2019-03-18T12:07:57.743Z,8.83
2019-03-18T12:10:27.204Z,6.37
2019-03-18T12:12:56.598Z,10.23
2019-03-18T12:15:27.017Z,7.30
2019-03-18T12:17:56.330Z,7.90
2019-03-18T12:20:26.053Z,10.87
2019-03-18T12:22:55.746Z,7.87
2019-03-18T12:25:25.068Z,8.97
2019-03-18T12:27:54.566Z,9.57
2019-03-18T12:30:26.240Z,10.50
2019-03-18T12:32:55.610Z,16.50
2019-03-18T12:35:24.966Z,8.30
2019-03-18T12:37:54.439Z,7.27
2019-03-18T12:40:29.586Z,8.73
2019-03-18T12:42:59.026Z,7.83
2019-03-18T12:45:28.455Z,11.60
2019-03-18T12:47:57.638Z,10.57
2019-03-18T12:53:01.974Z,13.13
2019-03-18T12:55:31.493Z,9.90
2019-03-18T12:58:00.902Z,6.40
2019-03-18T13:00:34.910Z,11.33
2019-03-18T13:03:05.567Z,9.00
2019-03-18T13:05:35.225Z,5.70
2019-03-18T13:08:04.781Z,6.77
2019-03-18T13:10:34.309Z,7.83
2019-03-18T13:13:03.750Z,7.23
2019-03-18T13:15:33.162Z,5.40
2019-03-18T13:18:02.428Z,6.57
2019-03-18T13:20:31.831Z,6.50
2019-03-18T13:23:00.990Z,7.83
2019-03-18T13:25:30.447Z,7.37
2019-03-18T13:27:59.906Z,5.13
2019-03-18T13:30:29.392Z,6.77
2019-03-18T13:32:58.644Z,6.63
2019-03-18T13:35:28.021Z,7.73
2019-03-18T13:37:57.491Z,6.83
2019-03-18T13:40:26.696Z,6.63
2019-03-18T13:42:56.156Z,9.47
2019-03-18T13:45:25.586Z,7.67
2019-03-18T13:47:54.775Z,6.70
2019-03-18T13:50:24.203Z,8.80
2019-03-18T13:52:53.360Z,9.23
2019-03-18T13:55:22.831Z,7.80
2019-03-18T13:57:52.372Z,15.00
2019-03-18T14:00:22.678Z,10.03
2019-03-18T14:02:52.239Z,8.20
2019-03-18T14:05:21.644Z,10.67
2019-03-18T14:08:00.348Z,10.80
2019-03-18T14:10:25.739Z,14.33
2019-03-18T14:12:55.141Z,13.33
2019-03-18T14:15:27.498Z,6.07
2019-03-18T14:17:56.979Z,19.77
2019-03-18T14:20:28.097Z,12.73
2019-03-18T14:22:57.604Z,12.00
2019-03-18T14:25:26.780Z,10.10
2019-03-18T14:27:56.245Z,12.80
2019-03-18T14:30:25.771Z,9.80
2019-03-18T14:32:55.248Z,10.13
2019-03-18T14:35:24.714Z,16.43
2019-03-18T14:37:54.215Z,8.73
2019-03-18T14:40:26.862Z,9.23
2019-03-18T14:42:56.578Z,9.83
2019-03-18T14:45:26.088Z,10.13
2019-03-18T14:47:55.559Z,12.57
2019-03-18T14:50:25.168Z,11.60
2019-03-18T14:52:54.527Z,13.57
2019-03-18T14:55:24.970Z,16.13
2019-03-18T14:57:56.907Z,10.63
2019-03-18T15:00:29.958Z,15.07
2019-03-18T15:02:59.195Z,13.17
2019-03-18T15:05:28.670Z,16.67
2019-03-18T15:07:58.975Z,12.83
2019-03-18T15:10:30.790Z,8.33
2019-03-18T15:13:00.139Z,13.97
2019-03-18T15:15:29.604Z,10.07
2019-03-18T15:17:59.361Z,13.83
2019-03-18T15:20:29.413Z,17.63
2019-03-18T15:22:58.941Z,15.43
2019-03-18T15:25:34.874Z,12.90
2019-03-18T15:28:04.591Z,11.00
2019-03-18T15:30:33.936Z,15.20
2019-03-18T15:33:03.252Z,11.07
2019-03-18T15:35:32.616Z,11.03
2019-03-18T15:38:02.829Z,9.53
2019-03-18T15:40:32.005Z,8.80
2019-03-18T15:43:01.476Z,7.57
2019-03-18T15:45:31.779Z,10.00
2019-03-18T15:48:01.329Z,10.43
2019-03-18T15:50:30.810Z,11.67
2019-03-18T15:53:00.280Z,11.80
2019-03-18T15:55:29.775Z,8.73
2019-03-18T15:57:59.011Z,22.57
2019-03-18T16:00:30.838Z,38.67
2019-03-18T16:03:00.739Z,50.27
2019-03-18T16:05:29.938Z,11.77
2019-03-18T16:08:04.011Z,14.53
2019-03-18T16:10:33.383Z,10.67
2019-03-18T16:13:02.935Z,9.50
2019-03-18T16:15:33.892Z,9.73
2019-03-18T16:18:04.428Z,8.33
2019-03-18T16:20:33.875Z,10.53
2019-03-18T16:23:03.746Z,7.13
2019-03-18T16:25:33.076Z,7.90
2019-03-18T16:28:02.331Z,10.37
2019-03-18T16:30:31.526Z,11.97
2019-03-18T16:33:00.965Z,13.20
2019-03-18T16:35:30.511Z,14.90
2019-03-18T16:38:00.035Z,13.00
2019-03-18T16:40:29.479Z,16.47
2019-03-18T16:42:58.689Z,13.30
2019-03-18T16:45:28.068Z,7.87
2019-03-18T16:47:57.589Z,10.90
2019-03-18T16:50:28.793Z,11.13
2019-03-18T16:52:58.030Z,17.33
2019-03-18T16:55:27.367Z,9.23
2019-03-18T16:57:56.891Z,19.20
2019-03-18T17:00:29.138Z,25.60
2019-03-18T17:02:58.368Z,18.60
2019-03-18T17:05:28.661Z,20.80
2019-03-18T17:07:59.840Z,18.10
2019-03-18T17:10:29.273Z,19.70
2019-03-18T17:12:58.914Z,15.20
2019-03-18T17:15:28.274Z,21.90
2019-03-18T17:17:57.453Z,23.30
2019-03-18T17:20:26.920Z,22.60
2019-03-18T17:22:56.405Z,19.63
2019-03-18T17:25:28.058Z,24.30
2019-03-18T17:27:57.241Z,14.47
2019-03-18T17:30:32.299Z,11.80
2019-03-18T17:33:05.954Z,15.83
2019-03-18T17:35:35.395Z,14.40
2019-03-18T17:38:04.701Z,14.77
2019-03-18T17:40:37.297Z,17.93
2019-03-18T17:43:09.665Z,21.00
2019-03-18T17:45:39.149Z,17.93
2019-03-18T17:48:08.341Z,20.40
2019-03-18T17:50:37.752Z,18.77
2019-03-18T17:53:08.066Z,20.23
2019-03-18T17:55:37.260Z,15.70
2019-03-18T17:58:07.538Z,17.60
2019-03-18T18:00:47.402Z,23.00
2019-03-18T18:03:16.851Z,19.67
2019-03-18T18:05:47.058Z,18.13
2019-03-18T18:08:18.272Z,23.10
2019-03-18T18:10:47.382Z,23.77
2019-03-18T18:13:16.818Z,27.83
2019-03-18T18:15:46.012Z,23.50
2019-03-18T18:18:15.420Z,24.20
2019-03-18T18:20:44.569Z,16.77
2019-03-18T18:23:15.072Z,22.57
2019-03-18T18:25:44.778Z,22.80
2019-03-18T18:28:13.996Z,24.37
2019-03-18T18:30:43.369Z,20.67
2019-03-18T18:33:13.714Z,27.47
2019-03-18T18:35:43.179Z,22.33
2019-03-18T18:38:13.554Z,24.47
2019-03-18T18:40:45.066Z,19.27
2019-03-18T18:43:14.563Z,20.10
2019-03-18T18:45:44.940Z,23.13
2019-03-18T18:48:14.391Z,23.03
2019-03-18T18:50:43.542Z,21.77
2019-03-18T18:53:13.033Z,21.43
2019-03-18T18:55:42.657Z,28.30
2019-03-18T18:58:28.946Z,25.00
2019-03-18T19:00:58.373Z,33.47
2019-03-18T19:03:27.815Z,34.10
2019-03-18T19:05:57.024Z,31.47
2019-03-18T19:08:26.425Z,28.40
2019-03-18T19:10:56.079Z,29.03
2019-03-18T19:13:26.339Z,36.07
2019-03-18T19:15:55.750Z,34.63
2019-03-18T19:18:24.982Z,54.53
2019-03-18T19:20:55.190Z,46.83
2019-03-18T19:23:24.675Z,41.73
2019-03-18T19:25:54.177Z,42.97
2019-03-18T19:28:23.443Z,31.73
2019-03-18T19:30:53.142Z,33.77
2019-03-18T19:33:22.362Z,33.03
2019-03-18T19:35:53.418Z,34.30
2019-03-18T19:38:23.780Z,33.13
2019-03-18T19:40:53.254Z,28.87
2019-03-18T19:43:22.455Z,33.40
2019-03-18T19:45:57.617Z,33.77
2019-03-18T19:48:27.168Z,36.10
2019-03-18T19:50:56.619Z,31.93
2019-03-18T19:53:25.792Z,29.90
2019-03-18T19:55:55.252Z,28.63
2019-03-18T19:58:24.726Z,30.43
2019-03-18T20:00:54.221Z,32.30
2019-03-18T20:03:23.435Z,28.67
2019-03-18T20:05:52.841Z,24.93
2019-03-18T20:08:22.331Z,23.47
2019-03-18T20:10:52.671Z,23.17
2019-03-18T20:13:22.146Z,22.30
2019-03-18T20:15:51.562Z,31.17
2019-03-18T20:18:20.800Z,27.23
2019-03-18T20:20:50.628Z,30.70
2019-03-18T20:23:20.188Z,33.53
2019-03-18T20:25:50.566Z,30.10
2019-03-18T20:28:20.029Z,30.23
2019-03-18T20:30:51.165Z,35.07
2019-03-18T20:33:21.583Z,28.70
2019-03-18T20:35:51.339Z,31.27
2019-03-18T20:38:22.187Z,34.60
2019-03-18T20:40:51.663Z,35.43
2019-03-18T20:43:21.145Z,36.20
2019-03-18T20:45:50.576Z,34.83
2019-03-18T20:48:19.770Z,32.83
2019-03-18T20:50:49.410Z,30.67
2019-03-18T20:53:18.749Z,41.70
2019-03-18T20:55:47.942Z,35.67
2019-03-18T20:58:17.362Z,40.50
2019-03-18T21:00:46.934Z,41.73
2019-03-18T21:03:16.400Z,30.03
2019-03-18T21:05:45.867Z,28.23
2019-03-18T21:08:15.397Z,34.30
2019-03-18T21:10:44.955Z,30.57
2019-03-18T21:13:17.154Z,32.50
2019-03-18T21:15:47.642Z,31.87
2019-03-18T21:18:17.104Z,36.27
2019-03-18T21:20:46.672Z,30.90
2019-03-18T21:23:16.088Z,26.80
2019-03-18T21:25:45.316Z,27.97
2019-03-18T21:28:14.688Z,28.90
2019-03-18T21:30:43.852Z,28.13
2019-03-18T21:33:13.446Z,22.10
2019-03-18T21:35:43.231Z,29.40
2019-03-18T21:38:12.795Z,28.60
2019-03-18T21:40:42.280Z,25.87
2019-03-18T21:43:12.593Z,23.50
2019-03-18T21:45:42.059Z,25.90
2019-03-18T21:48:11.590Z,20.50
2019-03-18T21:50:41.068Z,27.40
2019-03-18T21:53:10.311Z,22.37
2019-03-18T21:55:39.695Z,25.87
2019-03-18T21:58:09.229Z,19.07
2019-03-18T22:00:38.673Z,20.27
2019-03-18T22:03:08.207Z,22.10
2019-03-18T22:05:37.673Z,18.13
2019-03-18T22:08:06.943Z,22.90
2019-03-18T22:10:36.341Z,23.83
2019-03-18T22:13:05.924Z,22.73
2019-03-18T22:15:37.421Z,20.67
2019-03-18T22:18:17.130Z,22.47
2019-03-18T22:20:46.790Z,19.67
2019-03-18T22:23:16.910Z,25.50
2019-03-18T22:25:57.511Z,17.30
2019-03-18T22:28:26.981Z,19.63
2019-03-18T22:30:56.131Z,20.43
2019-03-18T22:33:25.321Z,24.43
2019-03-18T22:35:54.675Z,19.20
2019-03-18T22:38:24.178Z,22.80
2019-03-18T22:40:53.763Z,21.57
2019-03-18T22:43:23.217Z,24.90
2019-03-18T22:45:52.375Z,24.77
2019-03-18T22:48:21.834Z,22.93
2019-03-18T22:50:52.127Z,24.13
2019-03-18T22:53:21.295Z,22.70
2019-03-18T22:55:50.839Z,24.97
2019-03-18T22:58:20.300Z,21.63
2019-03-18T23:00:53.039Z,29.60
2019-03-18T23:03:23.190Z,25.03
2019-03-18T23:05:52.471Z,23.53
2019-03-18T23:08:21.938Z,26.43
2019-03-18T23:10:53.184Z,24.07
2019-03-18T23:13:22.587Z,26.57
2019-03-18T23:15:52.200Z,21.40
2019-03-18T23:18:21.643Z,25.43
2019-03-18T23:20:51.977Z,27.53
2019-03-18T23:23:22.241Z,30.43
2019-03-18T23:25:52.754Z,27.13
2019-03-18T23:28:22.116Z,22.90
2019-03-18T23:30:54.179Z,23.33
2019-03-18T23:33:24.420Z,26.27
2019-03-18T23:35:53.863Z,24.17
2019-03-18T23:38:27.075Z,30.80
2019-03-18T23:40:57.402Z,24.73
2019-03-18T23:43:27.006Z,27.40
2019-03-18T23:45:56.389Z,29.53
2019-03-18T23:48:25.597Z,23.57
2019-03-18T23:50:54.992Z,28.40
2019-03-18T23:53:24.525Z,26.93
2019-03-18T23:55:54.044Z,25.97
2019-03-18T23:58:27.621Z,24.67
